Impacts TAF Board
For situational awareness. Not to be used for flight planning purposes.
IDs:

KPHL - Philadelphia Intl, PA, US

Issued at 1133 UTC 15 Dec 2018
Updated at 1258 UTC 15 Dec 2018
Potential Impact None Slight Moderate High
Time<<16/01Z 16/02Z 16/03Z 16/04Z 16/05Z 16/06Z 16/07Z 16/08Z 16/09Z 16/10Z 16/11Z 16/12Z 16/13Z>>
Type PRVL PRVL PRVL PRVL PRVL PRVL PRVL PRVL PRVL PRVL PRVL PRVL PRVL
VIS 5 5 5 5 5 5 5 3 3 3 3 3 3
CIG 15 15 15 15 15 15 15 8 8 8 8 8 8
Cover OVC OVC OVC OVC OVC OVC OVC OVC OVC OVC OVC OVC OVC
FltCat MVFR MVFR MVFR MVFR MVFR MVFR MVFR IFR IFR IFR IFR IFR IFR
WX -RA -DZ -RA -DZ -RA -DZ -RA -DZ -RA -DZ -RA -DZ -RA -DZ -RA -RA -RA -RA -RA -RA
WDir 40 40 40 40 40 40 40 40 40 40 40 40 40
WSpd 10 10 10 10 10 10 10 15 15 15 15 15 15
WGst -- -- -- -- -- -- -- -- -- -- -- -- --
Raw TAF
KPHL 151133Z 1512/1618 04005KT 4SM -RA BR BKN005
  TEMPO 1512/1515 2SM -RA BR OVC003
  FM151500 04007KT 2SM -RA OVC003
  FM151800 05010KT 5SM -RA OVC008
  FM152300 04010KT 5SM -RADZ OVC015
  FM160800 04015KT 3SM -RA OVC008


METAR Board
Radar Display
Forecast Discussion
For situational awareness. Not to be used for flight planning purposes.